createdAt,value
2022-12-23T00:01:03.311Z,0.95
2022-12-23T00:06:10.899Z,0.60
2022-12-23T00:11:20.962Z,0.15
2022-12-23T00:16:23.254Z,0.57
2022-12-23T00:21:25.828Z,0.60
2022-12-23T00:26:31.813Z,0.40
2022-12-23T00:31:34.440Z,0.85
2022-12-23T00:36:37.551Z,0.77
2022-12-23T00:41:40.048Z,0.40
2022-12-23T00:46:42.723Z,0.32
2022-12-23T00:51:48.451Z,0.43
2022-12-23T00:56:51.022Z,0.20
2022-12-23T01:01:54.241Z,0.40
2022-12-23T01:06:56.290Z,0.47
2022-12-23T01:11:58.767Z,0.20
2022-12-23T01:17:01.686Z,0.50
2022-12-23T01:22:03.351Z,0.47
2022-12-23T01:27:05.061Z,0.73
2022-12-23T01:32:06.669Z,0.45
2022-12-23T01:37:08.327Z,0.50
2022-12-23T01:42:13.446Z,0.40
2022-12-23T01:47:37.221Z,0.70
2022-12-23T01:52:44.460Z,0.28
2022-12-23T01:57:46.947Z,0.75
2022-12-23T02:02:51.915Z,0.80
2022-12-23T02:07:54.376Z,0.70
2022-12-23T02:13:16.115Z,0.77
2022-12-23T02:18:45.941Z,0.60
2022-12-23T02:24:02.512Z,0.60
2022-12-23T02:29:34.882Z,0.35
2022-12-23T02:34:47.589Z,0.40
2022-12-23T02:40:01.266Z,0.40
2022-12-23T02:45:25.839Z,0.20
2022-12-23T02:50:31.945Z,0.60
2022-12-23T02:55:36.780Z,0.65
2022-12-23T03:00:40.692Z,0.63
2022-12-23T03:05:46.348Z,0.80
2022-12-23T03:11:09.779Z,0.65
2022-12-23T03:16:29.960Z,0.88
2022-12-23T03:21:45.804Z,0.47
2022-12-23T03:26:53.962Z,0.70
2022-12-23T03:31:59.816Z,0.85
2022-12-23T03:37:07.246Z,0.75
2022-12-23T03:42:18.917Z,0.43
2022-12-23T03:47:34.909Z,1.95
2022-12-23T03:58:01.075Z,0.28
2022-12-23T04:03:17.595Z,0.60
2022-12-23T04:08:31.040Z,0.50
2022-12-23T04:13:33.294Z,0.77
2022-12-23T04:18:35.344Z,0.20
2022-12-23T04:23:37.059Z,0.57
2022-12-23T04:28:38.868Z,0.15
2022-12-23T04:33:42.410Z,0.30
2022-12-23T04:38:44.288Z,0.30
2022-12-23T04:43:52.546Z,0.10
2022-12-23T04:48:54.691Z,0.55
2022-12-23T04:53:56.142Z,0.45
2022-12-23T04:58:57.636Z,0.73
2022-12-23T05:03:59.143Z,0.55
2022-12-23T05:09:00.801Z,0.30
2022-12-23T05:14:02.339Z,0.32
2022-12-23T05:19:03.871Z,0.50
2022-12-23T05:24:05.537Z,0.10
2022-12-23T05:29:07.015Z,0.20
2022-12-23T05:34:08.668Z,0.32
2022-12-23T05:39:10.246Z,0.22
2022-12-23T05:44:11.779Z,0.43
2022-12-23T05:49:13.248Z,0.00
2022-12-23T05:54:15.342Z,0.10
2022-12-23T05:59:19.901Z,0.28
2022-12-23T06:04:27.741Z,0.20
2022-12-23T06:09:30.120Z,1.75
2022-12-23T06:14:32.016Z,0.10
2022-12-23T06:19:34.099Z,0.15
2022-12-23T06:24:36.358Z,0.20
2022-12-23T06:29:43.010Z,1.10
2022-12-23T06:34:45.888Z,0.10
2022-12-23T06:39:48.760Z,0.30
2022-12-23T06:44:53.028Z,0.08
2022-12-23T06:49:54.978Z,0.93
2022-12-23T06:54:57.104Z,0.43
2022-12-23T06:59:59.089Z,0.40
2022-12-23T07:05:01.217Z,0.20
2022-12-23T07:10:23.694Z,0.17
2022-12-23T07:15:25.894Z,0.10
2022-12-23T07:20:27.452Z,0.28
2022-12-23T07:25:29.335Z,0.30
2022-12-23T07:30:31.278Z,0.08
2022-12-23T07:35:33.141Z,0.30
2022-12-23T07:40:35.454Z,0.40
2022-12-23T07:45:37.567Z,0.30
2022-12-23T07:50:39.600Z,1.10
2022-12-23T07:55:41.679Z,0.20
2022-12-23T08:00:43.476Z,0.17
2022-12-23T08:05:45.511Z,0.40
2022-12-23T08:10:48.544Z,0.45
2022-12-23T08:15:55.110Z,0.32
2022-12-23T08:20:59.086Z,0.60
2022-12-23T08:26:07.900Z,0.22
2022-12-23T08:31:13.757Z,0.40
2022-12-23T08:36:23.016Z,9.05
2022-12-23T08:41:28.848Z,23.58
2022-12-23T08:46:30.866Z,7.20
2022-12-23T08:51:33.186Z,4.22
2022-12-23T08:56:39.280Z,1.58
2022-12-23T09:01:41.638Z,3.50
2022-12-23T09:06:44.226Z,5.88
2022-12-23T09:11:46.080Z,6.35
2022-12-23T09:16:51.313Z,7.32
2022-12-23T09:21:53.062Z,6.20
2022-12-23T09:26:54.996Z,6.10
2022-12-23T09:31:56.975Z,3.80
2022-12-23T09:36:58.942Z,4.85
2022-12-23T09:42:18.619Z,3.95
2022-12-23T09:47:25.429Z,4.32
2022-12-23T09:52:58.614Z,2.80
2022-12-23T09:58:28.570Z,3.33
2022-12-23T10:03:43.486Z,2.20
2022-12-23T10:08:48.188Z,1.17
2022-12-23T10:14:03.052Z,0.63
2022-12-23T10:19:15.083Z,0.50
2022-12-23T10:24:22.681Z,0.50
2022-12-23T10:29:27.504Z,0.57
2022-12-23T10:34:51.846Z,0.50
2022-12-23T10:40:04.098Z,0.43
2022-12-23T10:45:27.406Z,0.80
2022-12-23T10:50:41.432Z,0.50
2022-12-23T10:55:44.099Z,0.77
2022-12-23T11:00:54.146Z,0.95
2022-12-23T11:05:57.999Z,1.20
2022-12-23T11:11:01.033Z,0.60
2022-12-23T11:16:32.449Z,0.65
2022-12-23T11:21:35.026Z,0.52
2022-12-23T11:26:40.304Z,0.17
2022-12-23T11:31:44.543Z,1.00
2022-12-23T11:37:06.969Z,0.97
2022-12-23T11:42:17.667Z,0.82
2022-12-23T11:47:22.636Z,0.60
2022-12-23T11:52:30.247Z,0.87
2022-12-23T11:57:43.050Z,0.22
2022-12-23T12:02:47.539Z,0.30
2022-12-23T12:07:51.731Z,0.30
2022-12-23T12:12:58.045Z,0.30
2022-12-23T12:23:29.168Z,0.30
2022-12-23T12:28:50.848Z,0.40
2022-12-23T12:34:14.421Z,0.20
2022-12-23T12:39:24.619Z,0.10
2022-12-23T12:44:51.010Z,0.32
2022-12-23T12:50:00.382Z,0.40
2022-12-23T12:55:16.398Z,0.10
2022-12-23T13:00:21.851Z,0.30
2022-12-23T13:05:39.523Z,0.70
2022-12-23T13:10:56.875Z,2.80
2022-12-23T13:16:20.223Z,1.50
2022-12-23T13:21:29.630Z,0.98
2022-12-23T13:26:38.960Z,0.50
2022-12-23T13:32:20.050Z,1.05
2022-12-23T13:38:00.091Z,0.30
2022-12-23T13:43:09.821Z,0.22
2022-12-23T13:48:20.280Z,0.40
2022-12-23T13:53:33.262Z,0.50
2022-12-23T13:58:35.247Z,0.30
2022-12-23T14:03:38.349Z,0.30
2022-12-23T14:08:42.556Z,0.20
2022-12-23T14:13:52.254Z,0.10
2022-12-23T14:19:14.266Z,0.10
2022-12-23T14:24:49.829Z,0.20
2022-12-23T14:30:13.204Z,0.13
2022-12-23T14:35:34.365Z,0.20
2022-12-23T14:40:39.941Z,0.13
2022-12-23T14:45:43.171Z,0.13
2022-12-23T14:50:57.310Z,0.10
2022-12-23T14:56:08.211Z,0.20
2022-12-23T15:01:15.303Z,0.20
2022-12-23T15:06:30.966Z,0.20
2022-12-23T15:11:35.053Z,0.25
2022-12-23T15:16:39.309Z,0.25
2022-12-23T15:21:40.903Z,0.10
2022-12-23T15:27:09.850Z,0.10
2022-12-23T15:32:11.676Z,0.20
2022-12-23T15:37:35.405Z,0.20
2022-12-23T15:42:37.029Z,0.10
2022-12-23T15:47:38.721Z,0.57
2022-12-23T15:52:42.769Z,0.22
2022-12-23T15:57:50.399Z,0.20
2022-12-23T16:03:04.777Z,0.43
2022-12-23T16:08:12.092Z,0.30
2022-12-23T16:13:18.674Z,0.30
2022-12-23T16:18:25.963Z,0.10
2022-12-23T16:23:33.858Z,0.20
2022-12-23T16:28:46.179Z,0.25
2022-12-23T16:33:47.674Z,0.38
2022-12-23T16:38:51.178Z,0.10
2022-12-23T16:43:53.247Z,0.10
2022-12-23T16:49:00.874Z,0.00
2022-12-23T16:54:02.523Z,0.13
2022-12-23T16:59:04.839Z,0.17
2022-12-23T17:04:07.303Z,0.00
2022-12-23T17:09:10.002Z,0.10
2022-12-23T17:14:18.204Z,0.10
2022-12-23T17:19:27.307Z,0.00
2022-12-23T17:24:30.046Z,0.20
2022-12-23T17:29:31.556Z,0.10
2022-12-23T17:34:33.009Z,0.20
2022-12-23T17:39:34.435Z,0.10
2022-12-23T17:44:35.947Z,0.10
2022-12-23T17:49:37.440Z,0.30
2022-12-23T17:54:38.889Z,0.10
2022-12-23T17:59:40.587Z,0.85
2022-12-23T18:04:42.082Z,0.10
2022-12-23T18:09:43.833Z,0.10
2022-12-23T18:14:45.437Z,0.15
2022-12-23T18:19:46.895Z,0.13
2022-12-23T18:24:53.817Z,0.10
2022-12-23T18:29:58.514Z,0.10
2022-12-23T18:35:00.177Z,0.10
2022-12-23T18:40:01.781Z,0.30
2022-12-23T18:45:25.552Z,0.20
2022-12-23T18:50:27.790Z,0.40
2022-12-23T18:55:30.097Z,0.60
2022-12-23T19:00:31.892Z,0.30
2022-12-23T19:05:37.776Z,0.10
2022-12-23T19:10:39.320Z,0.10
2022-12-23T19:15:45.118Z,0.95
2022-12-23T19:20:48.355Z,1.00
2022-12-23T19:25:55.343Z,0.73
2022-12-23T19:30:57.184Z,0.10
2022-12-23T19:35:58.636Z,0.40
2022-12-23T19:41:00.100Z,0.40
2022-12-23T19:46:05.005Z,0.50
2022-12-23T19:51:12.510Z,0.43
2022-12-23T19:56:15.779Z,0.20
2022-12-23T20:01:19.997Z,0.55
2022-12-23T20:06:27.868Z,0.30
2022-12-23T20:11:32.298Z,0.60
2022-12-23T20:16:34.566Z,1.33
2022-12-23T20:21:36.747Z,0.45
2022-12-23T20:26:38.714Z,0.50
2022-12-23T20:31:40.452Z,0.30
2022-12-23T20:36:42.170Z,0.43
2022-12-23T20:41:43.710Z,0.45
2022-12-23T20:46:45.356Z,0.22
2022-12-23T20:51:46.914Z,0.10
2022-12-23T20:56:48.531Z,0.20
2022-12-23T21:01:49.953Z,0.38
2022-12-23T21:06:51.426Z,0.20
2022-12-23T21:11:52.898Z,0.75
2022-12-23T21:16:54.308Z,1.05
2022-12-23T21:21:56.809Z,0.10
2022-12-23T21:26:58.345Z,0.10
2022-12-23T21:31:59.777Z,0.55
2022-12-23T21:37:01.331Z,0.52
2022-12-23T21:42:02.837Z,0.10
2022-12-23T21:47:04.419Z,0.13
2022-12-23T21:52:06.003Z,0.40
2022-12-23T21:57:07.559Z,0.43
2022-12-23T22:02:15.060Z,0.85
2022-12-23T22:07:16.571Z,0.60
2022-12-23T22:12:18.122Z,1.92
2022-12-23T22:17:19.603Z,0.20
2022-12-23T22:22:21.241Z,0.20
2022-12-23T22:27:22.840Z,0.20
2022-12-23T22:32:24.236Z,0.40
2022-12-23T22:37:25.756Z,0.30
2022-12-23T22:42:27.258Z,0.38
2022-12-23T22:47:28.712Z,0.32
2022-12-23T22:52:30.280Z,0.30
2022-12-23T22:57:32.461Z,0.50
2022-12-23T23:02:34.198Z,0.40
2022-12-23T23:07:35.784Z,0.35
2022-12-23T23:12:37.358Z,0.22
2022-12-23T23:17:38.913Z,0.28
2022-12-23T23:22:40.451Z,0.30
2022-12-23T23:27:41.918Z,0.05
2022-12-23T23:32:43.509Z,0.80
2022-12-23T23:37:45.025Z,0.10
2022-12-23T23:42:46.544Z,0.32
2022-12-23T23:47:48.061Z,0.30
2022-12-23T23:52:49.637Z,0.38
2022-12-23T23:57:51.151Z,0.25
